Ralph Wenz Field
KPNA : rendu visible

Aérodrome :











RETROUVEZ-NOUS SUR...

 
LOGIN :

S'inscrire | Disclaimer

   EN    FR    IT 

 









Légende :    VFR   VFR Marginal   IFR   IFR Intensif   IFR Très Intensif
Visi : 
Plafond : 
>= 8 km
>= 3000ft
5 à 8 km
1000 à 3000 ft
1500m à 5 km
500 à 1000 ft
800 à 1500m
200 à 500 ft
< 800m
< 200 ft
Symboles :   Orages  Brouillard  Fortes neiges  Fortes précipitations  Vent > 20 kt






- Altitude de l'aérodrome : 7102 ft


KPNA - Ralph Wenz Field

DERNIER METAR :
  • 221515Z AUTO 30006KT 10SM CLR M22/M25 A3019 RMK AO2

METARs EXPIRÉS :
  • 221455Z AUTO 30007KT 10SM CLR M23/M27 A3019 RMK AO2 TSNO
  • 221435Z AUTO 29006KT 10SM CLR M23/M26 A3018 RMK AO2 TSNO
  • 221415Z AUTO 29007KT 10SM CLR M23/M26 A3018 RMK AO2 TSNO
  • 221355Z AUTO 28008KT 10SM CLR M23/M26 A3019 RMK AO2 TSNO
  • 221335Z AUTO 29004KT 10SM CLR M25/M27 A3019 RMK AO2 TSNO
  • 221315Z AUTO 00000KT 10SM CLR M25/M27 A3019 RMK AO2 TSNO
  • 221255Z AUTO 29003KT 10SM CLR M23/M27 A3020 RMK AO2 TSNO
  • 221235Z AUTO 00000KT 10SM CLR M25/M28 A3020 RMK AO2 TSNO

TAF KPNA
Valide du 22 à 12h jusqu'au 23 à 12h UTC


221120Z 2212/2312 30005KT P6SM SCT200



MET'MAP, la Météo Aéronautique d'un coup d'oeil ! - Copyright ORBIFLY Décembre 2007 - Disclaimer

ORBIFLY MET'MAP TEAM :

Programmation & Développement : Alexandra Zaïnal
Sur une idée originale de : Baudouin d'Aumeries
Assistance à la programmation : Marc-Olivier Méhu
Soutien technique & logistique : Manuel Goepfert

Contact : metmap@orbifly.com




SOURCES & CREDITS :

   NOAA       Earth
Advisory